sensor_id;sensor_type;location;lat;lon;timestamp;pressure;altitude;pressure_sealevel;temperature;humidity
29903;BME280;30288;50.514;9.678;2023-01-09T00:01:12;96874.50;;;7.42;100.00
29903;BME280;30288;50.514;9.678;2023-01-09T00:03:20;96861.91;;;7.43;100.00
29903;BME280;30288;50.514;9.678;2023-01-09T00:05:26;96863.44;;;7.46;100.00
29903;BME280;30288;50.514;9.678;2023-01-09T00:07:31;96868.44;;;7.46;100.00
29903;BME280;30288;50.514;9.678;2023-01-09T00:09:36;96871.72;;;7.48;100.00
29903;BME280;30288;50.514;9.678;2023-01-09T00:11:41;96867.91;;;7.58;100.00
29903;BME280;30288;50.514;9.678;2023-01-09T00:13:46;96871.34;;;7.56;100.00
29903;BME280;30288;50.514;9.678;2023-01-09T00:15:51;96873.06;;;7.55;100.00
29903;BME280;30288;50.514;9.678;2023-01-09T00:17:56;96874.56;;;7.59;100.00
29903;BME280;30288;50.514;9.678;2023-01-09T00:20:07;96863.13;;;7.54;100.00
29903;BME280;30288;50.514;9.678;2023-01-09T00:22:13;96864.81;;;7.53;100.00
29903;BME280;30288;50.514;9.678;2023-01-09T00:24:18;96857.22;;;7.55;100.00
29903;BME280;30288;50.514;9.678;2023-01-09T00:26:23;96859.66;;;7.56;100.00
29903;BME280;30288;50.514;9.678;2023-01-09T00:28:29;96848.16;;;7.52;100.00
29903;BME280;30288;50.514;9.678;2023-01-09T00:30:34;96851.53;;;7.51;100.00
29903;BME280;30288;50.514;9.678;2023-01-09T00:32:40;96851.69;;;7.48;100.00
29903;BME280;30288;50.514;9.678;2023-01-09T00:34:45;96845.19;;;7.44;100.00
29903;BME280;30288;50.514;9.678;2023-01-09T00:36:53;96843.41;;;7.46;100.00
29903;BME280;30288;50.514;9.678;2023-01-09T00:38:58;96845.47;;;7.38;100.00
29903;BME280;30288;50.514;9.678;2023-01-09T00:41:07;96834.50;;;7.40;100.00
29903;BME280;30288;50.514;9.678;2023-01-09T00:43:13;96835.03;;;7.47;100.00
29903;BME280;30288;50.514;9.678;2023-01-09T00:45:22;96827.59;;;7.45;100.00
29903;BME280;30288;50.514;9.678;2023-01-09T00:47:35;96826.91;;;7.42;100.00
29903;BME280;30288;50.514;9.678;2023-01-09T00:49:42;96830.31;;;7.41;100.00
29903;BME280;30288;50.514;9.678;2023-01-09T00:51:48;96820.28;;;7.41;100.00
29903;BME280;30288;50.514;9.678;2023-01-09T00:53:57;96827.22;;;7.36;100.00
29903;BME280;30288;50.514;9.678;2023-01-09T00:56:07;96826.44;;;7.34;100.00
29903;BME280;30288;50.514;9.678;2023-01-09T00:58:14;96825.56;;;7.35;100.00
29903;BME280;30288;50.514;9.678;2023-01-09T01:00:19;96826.44;;;7.34;100.00
29903;BME280;30288;50.514;9.678;2023-01-09T01:02:25;96824.56;;;7.39;100.00
29903;BME280;30288;50.514;9.678;2023-01-09T01:04:30;96825.44;;;7.38;100.00
29903;BME280;30288;50.514;9.678;2023-01-09T01:06:48;96820.69;;;7.32;100.00
29903;BME280;30288;50.514;9.678;2023-01-09T01:09:08;96824.22;;;7.28;100.00
29903;BME280;30288;50.514;9.678;2023-01-09T01:11:14;96821.66;;;7.29;100.00
29903;BME280;30288;50.514;9.678;2023-01-09T01:13:19;96815.97;;;7.26;100.00
29903;BME280;30288;50.514;9.678;2023-01-09T01:15:24;96814.41;;;7.23;100.00
29903;BME280;30288;50.514;9.678;2023-01-09T01:17:33;96812.72;;;7.24;100.00
29903;BME280;30288;50.514;9.678;2023-01-09T01:19:38;96813.53;;;7.24;100.00
29903;BME280;30288;50.514;9.678;2023-01-09T01:21:43;96810.38;;;7.21;100.00
29903;BME280;30288;50.514;9.678;2023-01-09T01:23:49;96804.50;;;7.22;100.00
29903;BME280;30288;50.514;9.678;2023-01-09T01:26:02;96804.56;;;7.20;100.00
29903;BME280;30288;50.514;9.678;2023-01-09T01:28:08;96811.09;;;7.23;100.00
29903;BME280;30288;50.514;9.678;2023-01-09T01:30:15;96807.88;;;7.21;100.00
29903;BME280;30288;50.514;9.678;2023-01-09T01:32:21;96816.25;;;7.20;100.00
29903;BME280;30288;50.514;9.678;2023-01-09T01:34:27;96808.00;;;7.18;100.00
29903;BME280;30288;50.514;9.678;2023-01-09T01:36:32;96808.00;;;7.18;100.00
29903;BME280;30288;50.514;9.678;2023-01-09T01:38:38;96806.38;;;7.17;100.00
29903;BME280;30288;50.514;9.678;2023-01-09T01:40:43;96799.75;;;7.16;100.00
29903;BME280;30288;50.514;9.678;2023-01-09T01:42:53;96798.13;;;7.15;100.00
29903;BME280;30288;50.514;9.678;2023-01-09T01:45:05;96789.75;;;7.16;100.00
29903;BME280;30288;50.514;9.678;2023-01-09T01:47:11;96789.69;;;7.17;100.00
29903;BME280;30288;50.514;9.678;2023-01-09T01:49:16;96783.25;;;7.12;100.00
29903;BME280;30288;50.514;9.678;2023-01-09T01:51:22;96788.16;;;7.13;100.00
29903;BME280;30288;50.514;9.678;2023-01-09T01:53:33;96783.25;;;7.12;100.00
29903;BME280;30288;50.514;9.678;2023-01-09T01:55:44;96786.63;;;7.11;100.00
29903;BME280;30288;50.514;9.678;2023-01-09T01:57:56;96784.13;;;7.11;100.00
29903;BME280;30288;50.514;9.678;2023-01-09T02:00:05;96779.13;;;7.11;100.00
29903;BME280;30288;50.514;9.678;2023-01-09T02:02:11;96775.53;;;7.16;100.00
29903;BME280;30288;50.514;9.678;2023-01-09T02:04:17;96770.59;;;7.15;100.00
29903;BME280;30288;50.514;9.678;2023-01-09T02:06:23;96768.09;;;7.15;100.00
29903;BME280;30288;50.514;9.678;2023-01-09T02:08:28;96770.59;;;7.15;100.00
29903;BME280;30288;50.514;9.678;2023-01-09T02:10:33;96768.84;;;7.17;100.00
29903;BME280;30288;50.514;9.678;2023-01-09T02:12:39;96763.97;;;7.14;100.00
29903;BME280;30288;50.514;9.678;2023-01-09T02:14:47;96764.72;;;7.16;100.00
29903;BME280;30288;50.514;9.678;2023-01-09T02:17:06;96753.22;;;7.12;100.00
29903;BME280;30288;50.514;9.678;2023-01-09T02:19:37;96759.16;;;7.09;100.00
29903;BME280;30288;50.514;9.678;2023-01-09T02:22:06;96745.84;;;7.09;100.00
29903;BME280;30288;50.514;9.678;2023-01-09T02:24:45;96746.59;;;7.11;100.00
29903;BME280;30288;50.514;9.678;2023-01-09T02:32:40;96731.41;;;7.14;100.00
29903;BME280;30288;50.514;9.678;2023-01-09T02:34:56;96731.41;;;7.14;100.00
29903;BME280;30288;50.514;9.678;2023-01-09T02:37:16;96733.03;;;7.15;100.00
29903;BME280;30288;50.514;9.678;2023-01-09T02:39:42;96724.66;;;7.16;100.00
29903;BME280;30288;50.514;9.678;2023-01-09T02:41:56;96730.97;;;7.23;100.00
29903;BME280;30288;50.514;9.678;2023-01-09T02:44:19;96727.00;;;7.19;100.00
29903;BME280;30288;50.514;9.678;2023-01-09T02:46:28;96722.75;;;7.21;100.00
29903;BME280;30288;50.514;9.678;2023-01-09T02:48:33;96727.00;;;7.19;100.00
29903;BME280;30288;50.514;9.678;2023-01-09T02:50:44;96729.38;;;7.22;100.00
29903;BME280;30288;50.514;9.678;2023-01-09T02:53:12;96722.88;;;7.18;100.00
29903;BME280;30288;50.514;9.678;2023-01-09T02:55:34;96729.44;;;7.20;100.00
29903;BME280;30288;50.514;9.678;2023-01-09T02:57:54;96729.09;;;7.28;100.00
29903;BME280;30288;50.514;9.678;2023-01-09T03:00:13;96724.00;;;7.29;100.00
29903;BME280;30288;50.514;9.678;2023-01-09T03:02:38;96724.66;;;7.33;100.00
29903;BME280;30288;50.514;9.678;2023-01-09T03:04:57;96723.78;;;7.34;100.00
29903;BME280;30288;50.514;9.678;2023-01-09T03:07:12;96733.66;;;7.37;100.00
29903;BME280;30288;50.514;9.678;2023-01-09T03:09:22;96720.41;;;7.35;100.00
29903;BME280;30288;50.514;9.678;2023-01-09T03:11:37;96728.88;;;7.32;100.00
29903;BME280;30288;50.514;9.678;2023-01-09T03:13:49;96728.81;;;7.34;100.00
29903;BME280;30288;50.514;9.678;2023-01-09T03:15:55;96735.28;;;7.38;100.00
29903;BME280;30288;50.514;9.678;2023-01-09T03:18:07;96736.91;;;7.39;100.00
29903;BME280;30288;50.514;9.678;2023-01-09T03:20:17;96735.44;;;7.35;100.00
29903;BME280;30288;50.514;9.678;2023-01-09T03:22:25;96741.31;;;7.34;100.00
29903;BME280;30288;50.514;9.678;2023-01-09T03:24:30;96735.44;;;7.35;100.00
29903;BME280;30288;50.514;9.678;2023-01-09T03:26:35;96743.00;;;7.33;100.00
29903;BME280;30288;50.514;9.678;2023-01-09T03:28:41;96730.44;;;7.35;100.00
29903;BME280;30288;50.514;9.678;2023-01-09T03:30:46;96736.09;;;7.38;100.00
29903;BME280;30288;50.514;9.678;2023-01-09T03:32:51;96740.06;;;7.42;100.00
29903;BME280;30288;50.514;9.678;2023-01-09T03:34:59;96741.47;;;7.48;100.00
29903;BME280;30288;50.514;9.678;2023-01-09T03:37:04;96738.22;;;7.46;100.00
29903;BME280;30288;50.514;9.678;2023-01-09T03:39:09;96748.25;;;7.46;100.00
29903;BME280;30288;50.514;9.678;2023-01-09T03:41:14;96751.66;;;7.45;100.00
29903;BME280;30288;50.514;9.678;2023-01-09T03:43:20;96752.31;;;7.48;100.00
29903;BME280;30288;50.514;9.678;2023-01-09T03:45:25;96751.34;;;7.51;100.00
29903;BME280;30288;50.514;9.678;2023-01-09T03:47:30;96745.63;;;7.49;100.00
29903;BME280;30288;50.514;9.678;2023-01-09T03:49:36;96750.03;;;7.44;100.00
29903;BME280;30288;50.514;9.678;2023-01-09T03:51:43;96745.44;;;7.35;100.00
29903;BME280;30288;50.514;9.678;2023-01-09T03:53:48;96749.41;;;7.22;100.00
29903;BME280;30288;50.514;9.678;2023-01-09T03:55:55;96757.81;;;7.21;100.00
29903;BME280;30288;50.514;9.678;2023-01-09T03:58:00;96762.66;;;7.24;100.00
29903;BME280;30288;50.514;9.678;2023-01-09T04:00:10;96787.19;;;7.17;100.00
29903;BME280;30288;50.514;9.678;2023-01-09T04:02:16;96803.13;;;7.15;100.00
29903;BME280;30288;50.514;9.678;2023-01-09T04:04:21;96808.81;;;7.18;100.00
29903;BME280;30288;50.514;9.678;2023-01-09T04:06:26;96804.59;;;7.19;100.00
29903;BME280;30288;50.514;9.678;2023-01-09T04:08:34;96797.69;;;7.24;100.00
29903;BME280;30288;50.514;9.678;2023-01-09T04:10:43;96792.69;;;7.24;100.00
29903;BME280;30288;50.514;9.678;2023-01-09T04:12:48;96792.69;;;7.24;100.00
29903;BME280;30288;50.514;9.678;2023-01-09T04:14:53;96800.97;;;7.26;100.00
29903;BME280;30288;50.514;9.678;2023-01-09T04:16:59;96798.31;;;7.29;100.00
29903;BME280;30288;50.514;9.678;2023-01-09T04:19:04;96807.72;;;7.24;100.00
29903;BME280;30288;50.514;9.678;2023-01-09T04:21:09;96806.69;;;7.28;100.00
29903;BME280;30288;50.514;9.678;2023-01-09T04:23:14;96802.72;;;7.24;100.00
29903;BME280;30288;50.514;9.678;2023-01-09T04:25:22;96801.91;;;7.23;100.00
29903;BME280;30288;50.514;9.678;2023-01-09T04:27:27;96808.38;;;7.27;100.00
29903;BME280;30288;50.514;9.678;2023-01-09T04:29:32;96812.47;;;7.30;100.00
29903;BME280;30288;50.514;9.678;2023-01-09T04:31:37;96821.88;;;7.25;100.00
29903;BME280;30288;50.514;9.678;2023-01-09T04:33:42;96819.38;;;7.25;100.00
29903;BME280;30288;50.514;9.678;2023-01-09T04:35:48;96821.09;;;7.23;100.00
29903;BME280;30288;50.514;9.678;2023-01-09T04:37:53;96831.13;;;7.23;100.00
29903;BME280;30288;50.514;9.678;2023-01-09T04:39:58;96836.81;;;7.26;100.00
29903;BME280;30288;50.514;9.678;2023-01-09T04:42:10;96842.66;;;7.27;100.00
29903;BME280;30288;50.514;9.678;2023-01-09T04:44:15;96849.41;;;7.25;100.00
29903;BME280;30288;50.514;9.678;2023-01-09T04:46:20;96853.31;;;7.30;100.00
29903;BME280;30288;50.514;9.678;2023-01-09T04:48:25;96861.66;;;7.31;100.00
29903;BME280;30288;50.514;9.678;2023-01-09T04:50:30;96859.16;;;7.31;100.00
29903;BME280;30288;50.514;9.678;2023-01-09T04:52:35;96867.38;;;7.33;100.00
29903;BME280;30288;50.514;9.678;2023-01-09T04:54:40;96875.78;;;7.32;100.00
29903;BME280;30288;50.514;9.678;2023-01-09T04:56:45;96888.13;;;7.36;100.00
29903;BME280;30288;50.514;9.678;2023-01-09T04:58:53;96885.13;;;7.28;100.00
29903;BME280;30288;50.514;9.678;2023-01-09T05:00:58;96885.06;;;7.30;100.00
29903;BME280;30288;50.514;9.678;2023-01-09T05:03:03;96896.78;;;7.29;100.00
29903;BME280;30288;50.514;9.678;2023-01-09T05:05:09;96902.84;;;7.24;100.00
29903;BME280;30288;50.514;9.678;2023-01-09T05:07:15;96909.75;;;7.19;100.00
29903;BME280;30288;50.514;9.678;2023-01-09T05:09:21;96903.41;;;7.12;100.00
29903;BME280;30288;50.514;9.678;2023-01-09T05:11:26;96913.81;;;7.02;100.00
29903;BME280;30288;50.514;9.678;2023-01-09T05:13:31;96919.81;;;6.98;100.00
29903;BME280;30288;50.514;9.678;2023-01-09T05:15:38;96924.22;;;6.93;100.00
29903;BME280;30288;50.514;9.678;2023-01-09T05:17:44;96936.03;;;6.90;100.00
29903;BME280;30288;50.514;9.678;2023-01-09T05:19:49;96936.84;;;6.90;100.00
29903;BME280;30288;50.514;9.678;2023-01-09T05:21:54;96936.22;;;6.85;100.00
29903;BME280;30288;50.514;9.678;2023-01-09T05:23:59;96957.44;;;6.77;100.00
29903;BME280;30288;50.514;9.678;2023-01-09T05:26:04;96944.97;;;6.75;100.00
29903;BME280;30288;50.514;9.678;2023-01-09T05:28:10;96953.50;;;6.71;100.00
29903;BME280;30288;50.514;9.678;2023-01-09T05:30:19;96961.13;;;6.68;100.00
29903;BME280;30288;50.514;9.678;2023-01-09T05:32:26;96961.06;;;6.70;100.00
29903;BME280;30288;50.514;9.678;2023-01-09T05:34:31;96970.25;;;6.69;100.00
29903;BME280;30288;50.514;9.678;2023-01-09T05:36:36;96970.50;;;6.63;100.00
29903;BME280;30288;50.514;9.678;2023-01-09T05:38:42;96977.25;;;6.61;100.00
29903;BME280;30288;50.514;9.678;2023-01-09T05:40:47;96976.31;;;6.64;100.00
29903;BME280;30288;50.514;9.678;2023-01-09T05:42:55;96982.00;;;6.67;100.00
29903;BME280;30288;50.514;9.678;2023-01-09T05:45:01;96988.06;;;6.62;100.00
29903;BME280;30288;50.514;9.678;2023-01-09T05:47:06;96996.28;;;6.65;100.00
29903;BME280;30288;50.514;9.678;2023-01-09T05:49:14;96997.25;;;6.61;100.00
29903;BME280;30288;50.514;9.678;2023-01-09T05:51:19;97002.38;;;6.58;100.00
29903;BME280;30288;50.514;9.678;2023-01-09T05:53:24;97007.53;;;6.55;100.00
29903;BME280;30288;50.514;9.678;2023-01-09T05:55:29;97008.25;;;6.57;100.00
29903;BME280;30288;50.514;9.678;2023-01-09T05:57:34;97013.44;;;6.52;100.00
29903;BME280;30288;50.514;9.678;2023-01-09T05:59:39;97007.56;;;6.53;100.00
29903;BME280;30288;50.514;9.678;2023-01-09T06:01:44;97015.91;;;6.54;100.00
29903;BME280;30288;50.514;9.678;2023-01-09T06:03:49;97020.13;;;6.52;100.00
29903;BME280;30288;50.514;9.678;2023-01-09T06:05:57;97024.22;;;6.54;100.00
29903;BME280;30288;50.514;9.678;2023-01-09T06:08:02;97016.13;;;6.48;100.00
29903;BME280;30288;50.514;9.678;2023-01-09T06:10:10;97004.75;;;6.41;100.00
29903;BME280;30288;50.514;9.678;2023-01-09T06:12:15;96995.97;;;6.31;100.00
29903;BME280;30288;50.514;9.678;2023-01-09T06:14:21;97007.94;;;6.23;100.00
29903;BME280;30288;50.514;9.678;2023-01-09T06:16:26;97024.75;;;6.19;100.00
29903;BME280;30288;50.514;9.678;2023-01-09T06:18:31;97022.53;;;6.11;100.00
29903;BME280;30288;50.514;9.678;2023-01-09T06:20:36;97026.25;;;6.01;100.00
29903;BME280;30288;50.514;9.678;2023-01-09T06:22:43;97024.09;;;5.92;100.00
29903;BME280;30288;50.514;9.678;2023-01-09T06:24:49;97021.78;;;5.86;100.00
29903;BME280;30288;50.514;9.678;2023-01-09T06:26:54;97038.31;;;5.90;100.00
29903;BME280;30288;50.514;9.678;2023-01-09T06:28:59;97033.09;;;5.96;100.00
29903;BME280;30288;50.514;9.678;2023-01-09T06:31:05;97049.81;;;5.94;100.00
29903;BME280;30288;50.514;9.678;2023-01-09T06:33:10;97049.72;;;5.97;100.00
29903;BME280;30288;50.514;9.678;2023-01-09T06:35:15;97052.31;;;5.94;100.00
29903;BME280;30288;50.514;9.678;2023-01-09T06:37:22;97057.22;;;5.97;100.00
29903;BME280;30288;50.514;9.678;2023-01-09T06:39:30;97055.25;;;6.05;100.00
29903;BME280;30288;50.514;9.678;2023-01-09T06:41:37;97054.16;;;6.12;100.00
29903;BME280;30288;50.514;9.678;2023-01-09T06:43:43;97060.69;;;6.17;100.00
29903;BME280;30288;50.514;9.678;2023-01-09T06:45:48;97066.31;;;6.22;100.00
29903;BME280;30288;50.514;9.678;2023-01-09T06:47:53;97063.81;;;6.22;100.00
29903;BME280;30288;50.514;9.678;2023-01-09T06:49:58;97065.59;;;6.18;100.00
29903;BME280;30288;50.514;9.678;2023-01-09T06:52:03;97072.53;;;6.11;100.00
29903;BME280;30288;50.514;9.678;2023-01-09T06:54:09;97067.63;;;6.08;100.00
29903;BME280;30288;50.514;9.678;2023-01-09T06:56:16;97068.44;;;6.09;100.00
29903;BME280;30288;50.514;9.678;2023-01-09T06:58:21;97067.75;;;6.05;100.00
29903;BME280;30288;50.514;9.678;2023-01-09T07:00:26;97071.22;;;6.01;100.00
29903;BME280;30288;50.514;9.678;2023-01-09T07:02:32;97065.53;;;5.98;100.00
29903;BME280;30288;50.514;9.678;2023-01-09T07:04:37;97082.88;;;6.02;100.00
29903;BME280;30288;50.514;9.678;2023-01-09T07:06:42;97079.72;;;5.97;100.00
29903;BME280;30288;50.514;9.678;2023-01-09T07:08:48;97084.88;;;5.93;100.00
29903;BME280;30288;50.514;9.678;2023-01-09T07:10:54;97088.19;;;5.93;100.00
29903;BME280;30288;50.514;9.678;2023-01-09T07:13:01;97093.06;;;5.96;100.00
29903;BME280;30288;50.514;9.678;2023-01-09T07:15:08;97090.75;;;5.92;100.00
29903;BME280;30288;50.514;9.678;2023-01-09T07:17:13;97094.75;;;5.96;100.00
29903;BME280;30288;50.514;9.678;2023-01-09T07:19:18;97096.09;;;6.04;100.00
29903;BME280;30288;50.514;9.678;2023-01-09T07:21:23;97094.25;;;6.09;100.00
29903;BME280;30288;50.514;9.678;2023-01-09T07:23:28;97109.50;;;6.03;100.00
29903;BME280;30288;50.514;9.678;2023-01-09T07:25:34;97106.34;;;5.98;100.00
29903;BME280;30288;50.514;9.678;2023-01-09T07:27:39;97108.19;;;5.93;100.00
29903;BME280;30288;50.514;9.678;2023-01-09T07:29:47;97114.91;;;5.91;100.00
29903;BME280;30288;50.514;9.678;2023-01-09T07:31:52;97121.72;;;5.86;100.00
29903;BME280;30288;50.514;9.678;2023-01-09T07:33:57;97125.88;;;5.86;100.00
29903;BME280;30288;50.514;9.678;2023-01-09T07:36:02;97128.25;;;5.90;100.00
29903;BME280;30288;50.514;9.678;2023-01-09T07:38:07;97131.53;;;5.92;100.00
29903;BME280;30288;50.514;9.678;2023-01-09T07:40:12;97128.22;;;5.92;100.00
29903;BME280;30288;50.514;9.678;2023-01-09T07:42:17;97135.81;;;5.89;100.00
29903;BME280;30288;50.514;9.678;2023-01-09T07:44:22;97132.28;;;5.94;100.00
29903;BME280;30288;50.514;9.678;2023-01-09T07:46:30;97132.94;;;5.99;100.00
29903;BME280;30288;50.514;9.678;2023-01-09T07:48:35;97138.16;;;5.93;100.00
29903;BME280;30288;50.514;9.678;2023-01-09T07:50:40;97161.50;;;5.92;100.00
29903;BME280;30288;50.514;9.678;2023-01-09T07:52:46;97156.31;;;5.98;100.00
29903;BME280;30288;50.514;9.678;2023-01-09T07:54:51;97154.66;;;5.97;100.00
29903;BME280;30288;50.514;9.678;2023-01-09T07:56:56;97164.53;;;6.00;100.00
29903;BME280;30288;50.514;9.678;2023-01-09T07:59:01;97162.72;;;6.05;100.00
29903;BME280;30288;50.514;9.678;2023-01-09T08:01:06;97164.34;;;6.06;100.00
29903;BME280;30288;50.514;9.678;2023-01-09T08:03:14;97167.50;;;6.11;100.00
29903;BME280;30288;50.514;9.678;2023-01-09T08:05:19;97187.28;;;6.18;100.00
29903;BME280;30288;50.514;9.678;2023-01-09T08:07:24;97174.84;;;6.16;100.00
29903;BME280;30288;50.514;9.678;2023-01-09T08:09:29;97182.38;;;6.14;100.00
29903;BME280;30288;50.514;9.678;2023-01-09T08:11:34;97179.00;;;6.15;100.00
29903;BME280;30288;50.514;9.678;2023-01-09T08:13:39;97177.97;;;6.21;100.00
29903;BME280;30288;50.514;9.678;2023-01-09T08:15:44;97186.22;;;6.23;100.00
29903;BME280;30288;50.514;9.678;2023-01-09T08:17:49;97184.63;;;6.22;100.00
29903;BME280;30288;50.514;9.678;2023-01-09T08:19:56;97196.19;;;6.25;100.00
29903;BME280;30288;50.514;9.678;2023-01-09T08:22:01;97190.19;;;6.29;100.00
29903;BME280;30288;50.514;9.678;2023-01-09T08:24:08;97194.28;;;6.31;100.00
29903;BME280;30288;50.514;9.678;2023-01-09T08:26:13;97195.31;;;6.26;100.00
29903;BME280;30288;50.514;9.678;2023-01-09T08:28:19;97206.34;;;6.20;100.00
29903;BME280;30288;50.514;9.678;2023-01-09T08:30:25;97204.00;;;6.15;100.00
29903;BME280;30288;50.514;9.678;2023-01-09T08:32:30;97209.00;;;6.15;100.00
29903;BME280;30288;50.514;9.678;2023-01-09T08:34:35;97216.38;;;6.19;100.00
29903;BME280;30288;50.514;9.678;2023-01-09T08:36:43;97212.41;;;6.13;100.00
29903;BME280;30288;50.514;9.678;2023-01-09T08:38:48;97209.97;;;6.11;100.00
29903;BME280;30288;50.514;9.678;2023-01-09T08:40:53;97205.84;;;6.10;100.00
29903;BME280;30288;50.514;9.678;2023-01-09T08:42:58;97199.22;;;6.09;100.00
29903;BME280;30288;50.514;9.678;2023-01-09T08:45:15;97209.13;;;6.12;100.00
29903;BME280;30288;50.514;9.678;2023-01-09T08:47:33;97212.28;;;6.18;100.00
29903;BME280;30288;50.514;9.678;2023-01-09T08:49:41;97212.38;;;6.14;100.00
29903;BME280;30288;50.514;9.678;2023-01-09T08:51:49;97206.72;;;6.09;100.00
29903;BME280;30288;50.514;9.678;2023-01-09T08:53:54;97209.31;;;6.06;100.00
29903;BME280;30288;50.514;9.678;2023-01-09T08:55:59;97205.38;;;5.99;100.00
29903;BME280;30288;50.514;9.678;2023-01-09T08:58:05;97207.88;;;5.99;100.00
29903;BME280;30288;50.514;9.678;2023-01-09T09:00:12;97200.47;;;5.98;100.00
29903;BME280;30288;50.514;9.678;2023-01-09T09:02:18;97205.50;;;5.96;100.00
29903;BME280;30288;50.514;9.678;2023-01-09T09:04:23;97208.72;;;6.00;100.00
29903;BME280;30288;50.514;9.678;2023-01-09T09:06:28;97204.44;;;6.03;100.00
29903;BME280;30288;50.514;9.678;2023-01-09T09:08:35;97204.31;;;6.06;100.00
29903;BME280;30288;50.514;9.678;2023-01-09T09:10:40;97211.66;;;6.11;100.00
29903;BME280;30288;50.514;9.678;2023-01-09T09:12:49;97213.34;;;6.10;100.00
29903;BME280;30288;50.514;9.678;2023-01-09T09:14:54;97219.00;;;6.15;100.00
29903;BME280;30288;50.514;9.678;2023-01-09T09:17:12;97219.69;;;6.19;100.00
29903;BME280;30288;50.514;9.678;2023-01-09T09:19:17;97227.16;;;6.21;100.00
29903;BME280;30288;50.514;9.678;2023-01-09T09:21:22;97234.00;;;6.15;100.00
29903;BME280;30288;50.514;9.678;2023-01-09T09:23:27;97227.34;;;6.14;100.00
29903;BME280;30288;50.514;9.678;2023-01-09T09:25:35;97229.13;;;6.12;100.00
29903;BME280;30288;50.514;9.678;2023-01-09T09:27:40;97242.47;;;6.11;100.00
29903;BME280;30288;50.514;9.678;2023-01-09T09:29:46;97238.88;;;6.19;100.00
29903;BME280;30288;50.514;9.678;2023-01-09T09:31:51;97247.63;;;6.07;100.00
29903;BME280;30288;50.514;9.678;2023-01-09T09:33:56;97246.03;;;6.04;100.00
29903;BME280;30288;50.514;9.678;2023-01-09T09:36:01;97247.66;;;6.05;100.00
29903;BME280;30288;50.514;9.678;2023-01-09T09:38:06;97244.63;;;5.97;100.00
29903;BME280;30288;50.514;9.678;2023-01-09T09:40:19;97242.97;;;5.96;100.00
29903;BME280;30288;50.514;9.678;2023-01-09T09:43:03;97241.25;;;5.98;100.00
29903;BME280;30288;50.514;9.678;2023-01-09T09:45:37;97251.91;;;6.03;100.00
29903;BME280;30288;50.514;9.678;2023-01-09T09:47:52;97246.91;;;6.03;100.00
29903;BME280;30288;50.514;9.678;2023-01-09T09:50:27;97244.50;;;6.00;100.00
29903;BME280;30288;50.514;9.678;2023-01-09T09:52:44;97237.88;;;5.99;100.00
29903;BME280;30288;50.514;9.678;2023-01-09T09:54:52;97236.25;;;5.98;100.00
29903;BME280;30288;50.514;9.678;2023-01-09T09:57:01;97228.78;;;5.98;100.00
29903;BME280;30288;50.514;9.678;2023-01-09T09:59:16;97237.78;;;6.02;100.00
29903;BME280;30288;50.514;9.678;2023-01-09T10:01:23;97241.03;;;6.04;100.00
29903;BME280;30288;50.514;9.678;2023-01-09T10:03:34;97230.94;;;6.07;100.00
29903;BME280;30288;50.514;9.678;2023-01-09T10:05:43;97227.47;;;6.11;100.00
29903;BME280;30288;50.514;9.678;2023-01-09T10:07:50;97228.38;;;6.09;100.00
29903;BME280;30288;50.514;9.678;2023-01-09T10:10:00;97215.72;;;6.13;100.00
29903;BME280;30288;50.514;9.678;2023-01-09T10:12:21;97224.69;;;6.19;100.00
29903;BME280;30288;50.514;9.678;2023-01-09T10:14:32;97216.88;;;6.28;100.00
29903;BME280;30288;50.514;9.678;2023-01-09T10:17:00;97221.72;;;6.33;100.00
29903;BME280;30288;50.514;9.678;2023-01-09T10:19:24;97220.09;;;6.32;100.00
29903;BME280;30288;50.514;9.678;2023-01-09T10:21:35;97226.50;;;6.39;100.00
29903;BME280;30288;50.514;9.678;2023-01-09T10:24:04;97230.00;;;6.35;100.00
29903;BME280;30288;50.514;9.678;2023-01-09T10:26:21;97228.34;;;6.34;100.00
29903;BME280;30288;50.514;9.678;2023-01-09T10:31:25;97233.72;;;6.23;100.00
29903;BME280;30288;50.514;9.678;2023-01-09T10:33:48;97237.03;;;6.24;100.00
29903;BME280;30288;50.514;9.678;2023-01-09T10:38:47;97230.31;;;6.26;100.00
29903;BME280;30288;50.514;9.678;2023-01-09T10:40:59;97237.78;;;6.27;100.00
29903;BME280;30288;50.514;9.678;2023-01-09T10:43:11;97240.97;;;6.31;100.00
29903;BME280;30288;50.514;9.678;2023-01-09T10:45:23;97242.66;;;6.30;100.00
29903;BME280;30288;50.514;9.678;2023-01-09T10:47:34;97241.94;;;6.27;100.00
29903;BME280;30288;50.514;9.678;2023-01-09T10:49:39;97246.00;;;6.29;100.00
29903;BME280;30288;50.514;9.678;2023-01-09T10:51:47;97245.91;;;6.32;100.00
29903;BME280;30288;50.514;9.678;2023-01-09T10:53:55;97245.91;;;6.32;100.00
29903;BME280;30288;50.514;9.678;2023-01-09T10:56:06;97246.72;;;6.33;100.00
29903;BME280;30288;50.514;9.678;2023-01-09T10:58:17;97234.88;;;6.38;100.00
29903;BME280;30288;50.514;9.678;2023-01-09T11:00:24;97236.31;;;6.45;100.00
29903;BME280;30288;50.514;9.678;2023-01-09T11:02:34;97229.34;;;6.53;100.00
29903;BME280;30288;50.514;9.678;2023-01-09T11:04:39;97219.22;;;6.56;100.00
29903;BME280;30288;50.514;9.678;2023-01-09T11:06:47;97222.34;;;6.61;100.00
29903;BME280;30288;50.514;9.678;2023-01-09T11:08:55;97210.50;;;6.66;100.00
29903;BME280;30288;50.514;9.678;2023-01-09T11:11:03;97214.63;;;6.67;100.00
29903;BME280;30288;50.514;9.678;2023-01-09T11:13:16;97227.16;;;6.67;100.00
29903;BME280;30288;50.514;9.678;2023-01-09T11:15:26;97205.44;;;6.68;100.00
29903;BME280;30288;50.514;9.678;2023-01-09T11:17:37;97220.50;;;6.66;100.00
29903;BME280;30288;50.514;9.678;2023-01-09T11:20:00;97219.63;;;6.67;100.00
29903;BME280;30288;50.514;9.678;2023-01-09T11:22:13;97217.25;;;6.64;100.00
29903;BME280;30288;50.514;9.678;2023-01-09T11:24:27;97220.03;;;6.56;100.00
29903;BME280;30288;50.514;9.678;2023-01-09T11:26:33;97219.22;;;6.56;100.00
29903;BME280;30288;50.514;9.678;2023-01-09T11:28:37;97230.97;;;6.54;100.00
29903;BME280;30288;50.514;9.678;2023-01-09T11:30:52;97229.34;;;6.53;100.00